createdAt,value
2022-10-21T00:00:51.022Z,13.77
2022-10-21T00:03:18.460Z,13.88
2022-10-21T00:05:45.829Z,13.20
2022-10-21T00:08:13.708Z,13.38
2022-10-21T00:10:41.043Z,13.05
2022-10-21T00:13:08.312Z,14.18
2022-10-21T00:15:35.664Z,14.88
2022-10-21T00:18:04.997Z,13.60
2022-10-21T00:20:36.105Z,14.40
2022-10-21T00:23:06.054Z,13.73
2022-10-21T00:25:33.099Z,13.18
2022-10-21T00:28:00.207Z,14.32
2022-10-21T00:30:27.299Z,13.23
2022-10-21T00:32:56.366Z,13.27
2022-10-21T00:35:26.658Z,14.25
2022-10-21T00:37:53.812Z,14.48
2022-10-21T00:40:21.205Z,14.63
2022-10-21T00:42:48.943Z,13.68
2022-10-21T00:45:23.867Z,13.60
2022-10-21T00:48:02.517Z,14.77
2022-10-21T00:51:26.174Z,15.35
2022-10-21T00:53:53.802Z,14.57
2022-10-21T00:56:26.975Z,15.60
2022-10-21T00:58:57.679Z,14.87
2022-10-21T01:01:25.474Z,14.07
2022-10-21T01:03:53.139Z,14.43
2022-10-21T01:06:42.120Z,14.75
2022-10-21T01:09:09.601Z,15.35
2022-10-21T01:11:44.498Z,15.13
2022-10-21T01:14:30.984Z,15.30
2022-10-21T01:17:43.729Z,14.05
2022-10-21T01:20:26.326Z,14.35
2022-10-21T01:23:14.923Z,14.70
2022-10-21T01:26:06.460Z,14.80
2022-10-21T01:29:05.394Z,13.80
2022-10-21T01:31:54.248Z,14.38
2022-10-21T01:34:29.117Z,15.25
2022-10-21T01:37:23.548Z,14.80
2022-10-21T01:40:04.542Z,14.95
2022-10-21T01:43:00.182Z,14.48
2022-10-21T01:45:38.432Z,15.73
2022-10-21T01:48:10.576Z,15.43
2022-10-21T01:51:05.571Z,14.23
2022-10-21T01:53:44.372Z,15.18
2022-10-21T01:56:17.886Z,14.77
2022-10-21T01:58:47.942Z,15.82
2022-10-21T02:01:17.408Z,16.15
2022-10-21T02:03:49.428Z,15.25
2022-10-21T02:06:18.230Z,14.60
2022-10-21T02:08:46.580Z,14.80
2022-10-21T02:11:15.693Z,14.20
2022-10-21T02:14:23.689Z,15.63
2022-10-21T02:16:55.302Z,15.30
2022-10-21T02:19:23.091Z,15.23
2022-10-21T02:21:53.750Z,14.30
2022-10-21T02:24:51.561Z,15.40
2022-10-21T02:27:23.630Z,15.15
2022-10-21T02:29:54.852Z,15.40
2022-10-21T02:32:27.358Z,14.98
2022-10-21T02:35:07.010Z,15.90
2022-10-21T02:37:40.299Z,14.98
2022-10-21T02:40:25.009Z,15.13
2022-10-21T02:43:04.366Z,14.80
2022-10-21T02:45:34.125Z,14.63
2022-10-21T02:48:01.649Z,16.10
2022-10-21T02:50:32.073Z,15.77
2022-10-21T02:52:59.953Z,16.35
2022-10-21T02:55:27.671Z,16.15
2022-10-21T02:58:03.460Z,15.90
2022-10-21T03:00:32.952Z,15.23
2022-10-21T03:03:00.830Z,16.50
2022-10-21T03:05:29.625Z,17.98
2022-10-21T03:08:07.246Z,17.02
2022-10-21T03:10:40.282Z,15.63
2022-10-21T03:13:11.649Z,15.65
2022-10-21T03:15:39.034Z,16.00
2022-10-21T03:18:06.251Z,16.23
2022-10-21T03:20:33.597Z,16.83
2022-10-21T03:23:03.155Z,16.63
2022-10-21T03:25:35.079Z,16.55
2022-10-21T03:28:06.044Z,17.63
2022-10-21T03:30:33.982Z,15.75
2022-10-21T03:33:01.803Z,17.17
2022-10-21T03:35:30.127Z,15.68
2022-10-21T03:40:30.025Z,18.02
2022-10-21T03:42:58.607Z,15.07
2022-10-21T03:45:31.493Z,14.90
2022-10-21T03:48:00.378Z,15.07
2022-10-21T03:50:27.952Z,15.50
2022-10-21T03:53:09.932Z,15.90
2022-10-21T03:55:48.611Z,16.38
2022-10-21T03:58:20.708Z,14.77
2022-10-21T04:00:53.033Z,15.52
2022-10-21T04:03:31.431Z,15.82
2022-10-21T04:06:06.562Z,15.23
2022-10-21T04:08:39.303Z,16.83
2022-10-21T04:11:09.590Z,15.40
2022-10-21T04:13:45.375Z,16.00
2022-10-21T04:16:26.286Z,15.50
2022-10-21T04:18:56.516Z,15.80
2022-10-21T04:21:30.578Z,16.48
2022-10-21T04:24:06.699Z,15.32
2022-10-21T04:26:34.252Z,15.40
2022-10-21T04:29:02.035Z,16.83
2022-10-21T04:31:32.066Z,15.73
2022-10-21T04:34:03.641Z,16.08
2022-10-21T04:36:44.020Z,15.57
2022-10-21T04:39:16.813Z,16.35
2022-10-21T04:41:51.354Z,16.58
2022-10-21T04:44:26.391Z,16.65
2022-10-21T04:47:07.361Z,17.23
2022-10-21T04:49:35.925Z,16.10
2022-10-21T04:52:05.220Z,16.45
2022-10-21T04:54:35.159Z,15.32
2022-10-21T04:57:02.513Z,15.73
2022-10-21T04:59:30.366Z,16.13
2022-10-21T05:01:58.509Z,15.02
2022-10-21T05:04:26.025Z,16.95
2022-10-21T05:06:53.377Z,15.73
2022-10-21T05:09:20.787Z,15.82
2022-10-21T05:11:48.014Z,15.38
2022-10-21T05:14:20.035Z,17.48
2022-10-21T05:16:50.255Z,15.50
2022-10-21T05:19:17.958Z,15.98
2022-10-21T05:21:47.103Z,15.43
2022-10-21T05:24:15.317Z,15.68
2022-10-21T05:26:43.099Z,16.30
2022-10-21T05:29:10.836Z,15.30
2022-10-21T05:31:38.424Z,16.20
2022-10-21T05:34:05.731Z,16.42
2022-10-21T05:36:32.899Z,16.27
2022-10-21T05:39:00.006Z,15.90
2022-10-21T05:41:27.986Z,16.05
2022-10-21T05:43:55.628Z,17.10
2022-10-21T05:46:25.564Z,16.13
2022-10-21T05:49:01.301Z,16.75
2022-10-21T05:51:29.227Z,16.15
2022-10-21T05:53:58.358Z,15.88
2022-10-21T05:56:26.074Z,15.88
2022-10-21T05:58:53.401Z,16.67
2022-10-21T06:01:21.387Z,15.80
2022-10-21T06:03:49.128Z,16.08
2022-10-21T06:06:30.377Z,15.48
2022-10-21T06:09:05.681Z,15.93
2022-10-21T06:11:33.507Z,16.52
2022-10-21T06:14:16.535Z,15.68
2022-10-21T06:16:47.192Z,17.02
2022-10-21T06:19:17.614Z,14.40
2022-10-21T06:21:45.099Z,15.32
2022-10-21T06:24:12.416Z,15.27
2022-10-21T06:26:42.693Z,16.00
2022-10-21T06:29:12.947Z,15.82
2022-10-21T06:32:15.206Z,16.75
2022-10-21T06:34:45.602Z,16.05
2022-10-21T06:37:16.392Z,15.15
2022-10-21T06:39:46.971Z,16.25
2022-10-21T06:42:18.696Z,15.93
2022-10-21T06:45:00.104Z,15.43
2022-10-21T06:47:28.033Z,15.65
2022-10-21T06:49:55.169Z,15.93
2022-10-21T06:52:22.435Z,15.93
2022-10-21T06:54:50.402Z,15.63
2022-10-21T06:57:20.748Z,15.00
2022-10-21T06:59:51.737Z,15.80
2022-10-21T07:02:19.545Z,15.07
2022-10-21T07:05:01.704Z,14.88
2022-10-21T07:07:31.681Z,17.77
2022-10-21T07:09:59.611Z,16.13
2022-10-21T07:12:30.436Z,16.05
2022-10-21T07:15:07.256Z,15.75
2022-10-21T07:17:37.998Z,16.63
2022-10-21T07:20:15.230Z,17.42
2022-10-21T07:22:46.267Z,17.63
2022-10-21T07:25:14.323Z,18.58
2022-10-21T07:27:44.667Z,17.20
2022-10-21T07:30:33.769Z,17.45
2022-10-21T07:33:01.110Z,17.80
2022-10-21T07:38:40.164Z,15.93
2022-10-21T07:41:07.805Z,16.10
2022-10-21T07:43:35.327Z,16.05
2022-10-21T07:46:05.998Z,15.88
2022-10-21T07:48:34.183Z,15.93
2022-10-21T07:51:09.605Z,16.92
2022-10-21T07:53:51.462Z,16.20
2022-10-21T07:56:24.662Z,15.77
2022-10-21T07:59:17.979Z,15.97
2022-10-21T08:01:52.862Z,15.55
2022-10-21T08:04:23.366Z,16.35
2022-10-21T08:06:51.328Z,15.43
2022-10-21T08:09:19.173Z,15.73
2022-10-21T08:11:47.060Z,16.20
2022-10-21T08:14:15.203Z,15.57
2022-10-21T08:16:44.092Z,15.05
2022-10-21T08:19:29.893Z,16.60
2022-10-21T08:21:59.598Z,16.00
2022-10-21T08:24:42.227Z,16.75
2022-10-21T08:27:13.081Z,17.02
2022-10-21T08:30:05.276Z,17.35
2022-10-21T08:32:32.637Z,16.08
2022-10-21T08:34:59.782Z,16.83
2022-10-21T08:37:26.899Z,16.33
2022-10-21T08:39:54.167Z,17.27
2022-10-21T08:42:22.208Z,14.50
2022-10-21T08:45:07.351Z,14.98
2022-10-21T08:47:46.464Z,15.13
2022-10-21T08:50:17.010Z,15.68
2022-10-21T08:52:51.546Z,15.20
2022-10-21T08:55:40.930Z,14.75
2022-10-21T08:58:22.650Z,15.77
2022-10-21T09:01:29.769Z,15.45
2022-10-21T09:04:21.377Z,15.57
2022-10-21T09:07:10.236Z,14.93
2022-10-21T09:09:57.800Z,15.20
2022-10-21T09:12:46.660Z,15.70
2022-10-21T09:15:25.025Z,13.98
2022-10-21T09:18:19.480Z,14.68
2022-10-21T09:21:20.772Z,16.38
2022-10-21T09:24:05.802Z,13.25
2022-10-21T09:26:35.966Z,14.32
2022-10-21T09:29:26.077Z,14.57
2022-10-21T09:32:02.419Z,14.05
2022-10-21T09:35:10.014Z,13.70
2022-10-21T09:37:54.186Z,13.70
2022-10-21T09:40:26.464Z,14.48
2022-10-21T09:42:56.264Z,14.25
2022-10-21T09:45:40.455Z,15.13
2022-10-21T09:48:20.014Z,14.82
2022-10-21T09:50:51.566Z,15.45
2022-10-21T09:53:24.154Z,15.38
2022-10-21T09:56:10.656Z,14.00
2022-10-21T09:58:37.709Z,14.90
2022-10-21T10:01:11.200Z,13.45
2022-10-21T10:03:45.791Z,13.85
2022-10-21T10:06:13.546Z,14.70
2022-10-21T10:08:42.175Z,13.27
2022-10-21T10:11:09.399Z,14.27
2022-10-21T10:13:51.833Z,14.80
2022-10-21T10:16:29.434Z,14.60
2022-10-21T10:19:21.300Z,14.05
2022-10-21T10:22:10.398Z,14.90
2022-10-21T10:24:40.984Z,15.95
2022-10-21T10:27:23.811Z,15.02
2022-10-21T10:29:55.528Z,14.18
2022-10-21T10:32:26.748Z,15.27
2022-10-21T10:34:57.942Z,13.77
2022-10-21T10:37:27.720Z,13.85
2022-10-21T10:39:58.201Z,15.45
2022-10-21T10:42:33.163Z,13.70
2022-10-21T10:45:12.987Z,14.80
2022-10-21T10:47:48.478Z,13.38
2022-10-21T10:50:46.725Z,14.23
2022-10-21T10:53:26.005Z,14.13
2022-10-21T10:56:12.203Z,14.48
2022-10-21T10:58:45.690Z,12.88
2022-10-21T11:01:29.917Z,12.68
2022-10-21T11:04:11.429Z,12.70
2022-10-21T11:06:56.646Z,12.75
2022-10-21T11:09:27.272Z,13.55
2022-10-21T11:11:55.822Z,13.20
2022-10-21T11:14:23.387Z,12.63
2022-10-21T11:17:16.644Z,12.32
2022-10-21T11:19:53.192Z,11.98
2022-10-21T11:22:29.402Z,11.52
2022-10-21T11:25:07.172Z,11.48
2022-10-21T11:28:04.822Z,10.82
2022-10-21T11:30:58.011Z,10.48
2022-10-21T11:33:48.451Z,10.15
2022-10-21T11:36:32.325Z,11.13
2022-10-21T11:39:31.588Z,10.90
2022-10-21T11:42:10.594Z,11.23
2022-10-21T11:45:26.431Z,10.77
2022-10-21T11:48:12.312Z,11.63
2022-10-21T11:51:06.140Z,10.27
2022-10-21T11:53:47.455Z,10.07
2022-10-21T11:56:19.389Z,11.55
2022-10-21T11:59:07.911Z,10.68
2022-10-21T12:01:47.125Z,10.80
2022-10-21T12:04:28.851Z,11.18
2022-10-21T12:07:17.669Z,10.50
2022-10-21T12:10:10.245Z,10.60
2022-10-21T12:12:46.600Z,10.80
2022-10-21T12:15:25.886Z,10.73
2022-10-21T12:17:54.059Z,10.82
2022-10-21T12:20:26.899Z,10.70
2022-10-21T12:23:00.356Z,11.43
2022-10-21T12:25:49.409Z,11.48
2022-10-21T12:28:25.409Z,11.27
2022-10-21T12:31:15.745Z,11.52
2022-10-21T12:33:45.099Z,11.13
2022-10-21T12:36:24.499Z,11.73
2022-10-21T12:38:57.032Z,10.60
2022-10-21T12:41:32.141Z,11.70
2022-10-21T12:44:23.469Z,11.63
2022-10-21T12:47:01.580Z,11.43
2022-10-21T12:49:36.144Z,11.93
2022-10-21T12:52:14.722Z,10.68
2022-10-21T12:55:07.567Z,11.57
2022-10-21T12:57:55.286Z,9.68
2022-10-21T13:00:25.763Z,11.27
2022-10-21T13:03:10.573Z,10.77
2022-10-21T13:05:37.679Z,11.50
2022-10-21T13:08:20.318Z,10.15
2022-10-21T13:11:02.742Z,9.82
2022-10-21T13:13:36.749Z,9.18
2022-10-21T13:16:44.546Z,8.38
2022-10-21T13:19:32.631Z,8.02
2022-10-21T13:22:12.245Z,7.18
2022-10-21T13:24:41.423Z,7.53
2022-10-21T13:30:00.912Z,8.40
2022-10-21T13:32:36.745Z,7.60
2022-10-21T13:35:10.418Z,7.32
2022-10-21T13:37:50.318Z,7.05
2022-10-21T13:40:21.056Z,7.00
2022-10-21T13:43:06.655Z,7.88
2022-10-21T13:48:25.242Z,7.80
2022-10-21T13:50:53.886Z,7.93
2022-10-21T13:53:48.908Z,7.70
2022-10-21T13:56:39.740Z,7.13
2022-10-21T13:59:37.950Z,7.40
2022-10-21T14:02:42.326Z,7.30
2022-10-21T14:05:54.968Z,7.50
2022-10-21T14:08:27.475Z,7.18
2022-10-21T14:10:59.472Z,7.85
2022-10-21T14:13:33.347Z,7.05
2022-10-21T14:16:01.635Z,7.28
2022-10-21T14:18:37.287Z,7.80
2022-10-21T14:21:06.418Z,7.95
2022-10-21T14:23:35.380Z,7.90
2022-10-21T14:26:09.221Z,7.35
2022-10-21T14:28:37.483Z,7.15
2022-10-21T14:31:13.839Z,7.25
2022-10-21T14:33:46.091Z,7.32
2022-10-21T14:36:20.635Z,7.15
2022-10-21T14:39:03.303Z,7.40
2022-10-21T14:41:43.893Z,7.72
2022-10-21T14:44:17.946Z,8.05
2022-10-21T14:46:48.446Z,7.97
2022-10-21T14:49:21.394Z,7.35
2022-10-21T14:51:50.431Z,7.73
2022-10-21T14:54:45.303Z,8.07
2022-10-21T14:57:54.759Z,7.93
2022-10-21T15:00:30.217Z,8.20
2022-10-21T15:03:00.305Z,8.77
2022-10-21T15:05:45.170Z,8.25
2022-10-21T15:08:21.451Z,8.43
2022-10-21T15:11:02.306Z,8.55
2022-10-21T15:13:29.541Z,8.13
2022-10-21T15:15:59.423Z,8.70
2022-10-21T15:18:40.386Z,7.88
2022-10-21T15:21:29.585Z,8.23
2022-10-21T15:23:59.304Z,7.65
2022-10-21T15:26:40.003Z,7.88
2022-10-21T15:29:22.466Z,7.85
2022-10-21T15:31:50.048Z,7.68
2022-10-21T15:34:18.025Z,7.85
2022-10-21T15:36:48.022Z,7.82
2022-10-21T15:39:15.486Z,7.68
2022-10-21T15:41:43.559Z,6.97
2022-10-21T15:44:19.399Z,9.23
2022-10-21T15:46:47.452Z,7.70
2022-10-21T15:49:23.553Z,9.10
2022-10-21T15:51:51.990Z,8.30
2022-10-21T15:54:20.363Z,8.02
2022-10-21T15:56:55.998Z,7.72
2022-10-21T15:59:29.515Z,7.72
2022-10-21T16:02:02.457Z,8.70
2022-10-21T16:04:32.780Z,8.57
2022-10-21T16:07:00.511Z,7.70
2022-10-21T16:09:29.500Z,7.35
2022-10-21T16:12:00.694Z,7.38
2022-10-21T16:14:30.745Z,7.68
2022-10-21T16:16:59.448Z,7.38
2022-10-21T16:19:27.261Z,7.60
2022-10-21T16:21:55.088Z,7.53
2022-10-21T16:24:22.937Z,7.40
2022-10-21T16:26:50.958Z,7.97
2022-10-21T16:29:23.947Z,8.27
2022-10-21T16:31:54.005Z,7.47
2022-10-21T16:34:21.755Z,7.43
2022-10-21T16:36:49.791Z,6.55
2022-10-21T16:39:20.156Z,7.45
2022-10-21T16:41:48.791Z,7.32
2022-10-21T16:44:16.439Z,7.38
2022-10-21T16:46:51.496Z,7.55
2022-10-21T16:49:22.730Z,7.70
2022-10-21T16:51:52.896Z,8.60
2022-10-21T16:54:23.092Z,8.93
2022-10-21T16:56:53.353Z,7.25
2022-10-21T16:59:23.387Z,7.53
2022-10-21T17:01:51.889Z,7.88
2022-10-21T17:04:19.509Z,8.95
2022-10-21T17:06:47.145Z,7.97
2022-10-21T17:09:15.063Z,8.85
2022-10-21T17:11:42.950Z,9.00
2022-10-21T17:14:16.348Z,9.20
2022-10-21T17:16:45.461Z,9.10
2022-10-21T17:19:14.245Z,8.40
2022-10-21T17:21:42.457Z,9.57
2022-10-21T17:24:17.089Z,9.25
2022-10-21T17:26:45.230Z,9.00
2022-10-21T17:29:14.119Z,8.95
2022-10-21T17:31:43.412Z,9.38
2022-10-21T17:34:32.763Z,8.50
2022-10-21T17:37:00.748Z,12.85
2022-10-21T17:39:34.264Z,10.20
2022-10-21T17:42:02.557Z,9.65
2022-10-21T17:44:30.479Z,10.07
2022-10-21T17:47:01.292Z,9.85
2022-10-21T17:49:30.543Z,8.85
2022-10-21T17:52:04.994Z,9.27
2022-10-21T17:54:36.101Z,7.78
2022-10-21T17:57:04.065Z,7.40
2022-10-21T17:59:32.951Z,8.77
2022-10-21T18:02:03.636Z,8.85
2022-10-21T18:04:33.490Z,8.85
2022-10-21T18:07:05.917Z,9.25
2022-10-21T18:09:36.616Z,9.10
2022-10-21T18:12:07.435Z,8.95
2022-10-21T18:14:35.845Z,9.35
2022-10-21T18:17:05.564Z,9.73
2022-10-21T18:19:34.756Z,8.93
2022-10-21T18:22:03.264Z,9.15
2022-10-21T18:24:31.433Z,9.05
2022-10-21T18:26:59.222Z,10.57
2022-10-21T18:29:26.635Z,9.27
2022-10-21T18:31:53.978Z,9.05
2022-10-21T18:34:24.462Z,9.30
2022-10-21T18:36:59.654Z,8.65
2022-10-21T18:39:27.216Z,8.70
2022-10-21T18:41:55.064Z,9.68
2022-10-21T18:44:22.956Z,10.00
2022-10-21T18:47:00.577Z,9.82
2022-10-21T18:49:27.967Z,10.57
2022-10-21T18:52:08.424Z,10.63
2022-10-21T18:54:38.972Z,9.27
2022-10-21T18:57:12.712Z,9.75
2022-10-21T18:59:46.123Z,10.45
2022-10-21T19:02:22.089Z,10.50
2022-10-21T19:04:55.934Z,11.10
2022-10-21T19:07:39.240Z,10.27
2022-10-21T19:10:07.211Z,11.70
2022-10-21T19:12:39.534Z,13.75
2022-10-21T19:15:21.745Z,11.77
2022-10-21T19:18:04.279Z,12.30
2022-10-21T19:20:34.498Z,13.20
2022-10-21T19:23:01.742Z,14.15
2022-10-21T19:25:38.136Z,14.07
2022-10-21T19:28:05.362Z,13.32
2022-10-21T19:30:32.869Z,14.65
2022-10-21T19:33:02.164Z,15.25
2022-10-21T19:35:29.462Z,15.70
2022-10-21T19:38:00.626Z,14.13
2022-10-21T19:40:34.798Z,14.07
2022-10-21T19:43:02.501Z,15.65
2022-10-21T19:45:36.930Z,14.68
2022-10-21T19:48:10.327Z,13.48
2022-10-21T19:50:44.856Z,14.30
2022-10-21T19:53:13.715Z,13.82
2022-10-21T19:55:41.357Z,13.57
2022-10-21T19:58:09.050Z,12.52
2022-10-21T20:00:36.910Z,12.50
2022-10-21T20:03:05.511Z,13.20
2022-10-21T20:05:36.887Z,13.27
2022-10-21T20:08:05.369Z,13.90
2022-10-21T20:10:34.093Z,12.20
2022-10-21T20:13:03.938Z,13.40
2022-10-21T20:15:31.914Z,13.00
2022-10-21T20:18:02.757Z,13.60
2022-10-21T20:20:30.515Z,12.90
2022-10-21T20:22:58.432Z,12.77
2022-10-21T20:25:38.337Z,13.68
2022-10-21T20:28:05.884Z,11.95
2022-10-21T20:30:36.287Z,11.02
2022-10-21T20:33:06.983Z,11.55
2022-10-21T20:35:40.532Z,12.15
2022-10-21T20:38:09.451Z,13.10
2022-10-21T20:40:37.119Z,12.73
2022-10-21T20:43:04.764Z,12.98
2022-10-21T20:45:33.864Z,11.70
2022-10-21T20:48:01.331Z,11.75
2022-10-21T20:50:28.608Z,12.30
2022-10-21T20:52:55.972Z,10.52
2022-10-21T20:55:23.249Z,12.00
2022-10-21T20:57:50.482Z,12.70
2022-10-21T21:00:17.884Z,11.68
2022-10-21T21:02:45.287Z,11.88
2022-10-21T21:05:12.681Z,11.13
2022-10-21T21:07:40.275Z,12.32
2022-10-21T21:10:10.126Z,11.60
2022-10-21T21:12:37.786Z,11.98
2022-10-21T21:15:09.318Z,13.43
2022-10-21T21:17:36.399Z,12.52
2022-10-21T21:20:03.783Z,11.40
2022-10-21T21:22:31.042Z,12.13
2022-10-21T21:24:58.131Z,11.48
2022-10-21T21:27:25.366Z,11.98
2022-10-21T21:29:52.498Z,11.80
2022-10-21T21:32:19.814Z,12.13
2022-10-21T21:34:54.238Z,12.43
2022-10-21T21:37:22.955Z,11.68
2022-10-21T21:39:50.038Z,12.05
2022-10-21T21:42:17.611Z,12.20
2022-10-21T21:44:46.930Z,12.02
2022-10-21T21:47:14.570Z,11.30
2022-10-21T21:49:41.774Z,12.18
2022-10-21T21:52:08.922Z,11.77
2022-10-21T21:54:36.583Z,13.00
2022-10-21T21:57:26.885Z,14.73
2022-10-21T21:59:51.049Z,12.93
2022-10-21T22:02:18.451Z,13.63
2022-10-21T22:04:49.055Z,13.38
2022-10-21T22:07:16.457Z,14.60
2022-10-21T22:09:43.762Z,15.18
2022-10-21T22:12:14.394Z,14.93
2022-10-21T22:14:45.295Z,15.25
2022-10-21T22:17:12.554Z,16.73
2022-10-21T22:19:39.955Z,15.15
2022-10-21T22:22:07.351Z,15.43
2022-10-21T22:24:35.755Z,14.70
2022-10-21T22:27:06.484Z,15.95
2022-10-21T22:29:37.292Z,16.00
2022-10-21T22:32:05.121Z,15.32
2022-10-21T22:34:32.379Z,14.25
2022-10-21T22:37:02.578Z,14.02
2022-10-21T22:39:32.457Z,15.15
2022-10-21T22:42:06.802Z,16.13
2022-10-21T22:44:37.626Z,15.35
2022-10-21T22:47:09.345Z,15.73
2022-10-21T22:49:36.998Z,16.00
2022-10-21T22:54:54.093Z,14.25
2022-10-21T22:57:24.687Z,15.10
2022-10-21T22:59:54.432Z,15.55
2022-10-21T23:02:22.197Z,14.80
2022-10-21T23:04:50.905Z,15.35
2022-10-21T23:07:18.455Z,15.60
2022-10-21T23:09:45.701Z,15.70
2022-10-21T23:12:13.083Z,16.40
2022-10-21T23:14:45.665Z,17.92
2022-10-21T23:17:13.508Z,16.95
2022-10-21T23:19:41.867Z,14.88
2022-10-21T23:22:09.050Z,15.18
2022-10-21T23:24:36.514Z,15.65
2022-10-21T23:27:06.640Z,15.52
2022-10-21T23:29:37.091Z,15.13
2022-10-21T23:32:07.083Z,13.68
2022-10-21T23:34:34.436Z,15.30
2022-10-21T23:37:01.901Z,14.68
2022-10-21T23:39:29.064Z,14.27
2022-10-21T23:41:56.292Z,15.23
2022-10-21T23:44:23.876Z,14.43
2022-10-21T23:46:51.190Z,15.10
2022-10-21T23:49:18.408Z,15.70
2022-10-21T23:51:45.697Z,14.60
2022-10-21T23:54:13.192Z,15.65
2022-10-21T23:56:40.607Z,12.80
2022-10-21T23:59:08.286Z,15.13
